sensor_id;sensor_type;location;lat;lon;timestamp;pressure;altitude;pressure_sealevel;temperature;humidity
9335;BME280;4706;41.844;26.082;2024-03-23T00:54:10;101038.63;;;10.26;55.60
9335;BME280;4706;41.844;26.082;2024-03-23T00:56:36;101032.53;;;9.95;55.79
9335;BME280;4706;41.844;26.082;2024-03-23T00:59:01;101024.69;;;9.73;56.37
9335;BME280;4706;41.844;26.082;2024-03-23T01:01:27;101032.47;;;9.61;56.72
9335;BME280;4706;41.844;26.082;2024-03-23T01:03:52;101036.13;;;9.41;57.20
9335;BME280;4706;41.844;26.082;2024-03-23T01:06:18;101023.28;;;9.31;57.45
9335;BME280;4706;41.844;26.082;2024-03-23T01:08:44;101024.09;;;9.32;57.67
9335;BME280;4706;41.844;26.082;2024-03-23T01:11:09;101032.88;;;9.34;57.55
9335;BME280;4706;41.844;26.082;2024-03-23T01:13:35;101036.72;;;9.28;57.73
9335;BME280;4706;41.844;26.082;2024-03-23T01:16:00;101037.53;;;9.28;57.34
9335;BME280;4706;41.844;26.082;2024-03-23T01:18:26;101037.59;;;9.13;57.19
9335;BME280;4706;41.844;26.082;2024-03-23T01:20:52;101024.25;;;8.86;57.32
9335;BME280;4706;41.844;26.082;2024-03-23T01:23:18;101038.75;;;9.07;57.55
9335;BME280;4706;41.844;26.082;2024-03-23T01:25:43;101033.75;;;9.19;57.62
9335;BME280;4706;41.844;26.082;2024-03-23T01:28:08;101032.63;;;9.25;57.40
9335;BME280;4706;41.844;26.082;2024-03-23T01:30:35;101041.06;;;9.39;57.30
9335;BME280;4706;41.844;26.082;2024-03-23T01:33:01;101028.97;;;9.45;57.14
9335;BME280;4706;41.844;26.082;2024-03-23T01:35:28;101031.94;;;9.54;56.25
9335;BME280;4706;41.844;26.082;2024-03-23T01:37:53;101035.88;;;9.37;56.58
9335;BME280;4706;41.844;26.082;2024-03-23T01:40:19;101034.00;;;9.17;56.34
9335;BME280;4706;41.844;26.082;2024-03-23T01:42:58;101036.88;;;8.82;57.07
9335;BME280;4706;41.844;26.082;2024-03-23T01:45:24;101030.56;;;8.76;57.57
9335;BME280;4706;41.844;26.082;2024-03-23T01:47:51;101015.47;;;8.84;58.83
9335;BME280;4706;41.844;26.082;2024-03-23T01:50:18;101018.16;;;9.04;59.10
9335;BME280;4706;41.844;26.082;2024-03-23T01:52:44;101012.50;;;8.70;60.04
9335;BME280;4706;41.844;26.082;2024-03-23T01:55:09;101037.19;;;8.60;61.30
9335;BME280;4706;41.844;26.082;2024-03-23T01:57:35;101028.41;;;8.42;62.20
9335;BME280;4706;41.844;26.082;2024-03-23T02:00:01;101029.00;;;8.39;62.24
9335;BME280;4706;41.844;26.082;2024-03-23T02:02:26;101015.81;;;8.41;61.68
9335;BME280;4706;41.844;26.082;2024-03-23T02:04:52;101010.88;;;8.28;61.81
9335;BME280;4706;41.844;26.082;2024-03-23T02:07:17;101024.56;;;8.28;62.17
9335;BME280;4706;41.844;26.082;2024-03-23T02:09:43;101027.03;;;8.30;62.65
9335;BME280;4706;41.844;26.082;2024-03-23T02:12:09;101013.59;;;8.18;62.63
9335;BME280;4706;41.844;26.082;2024-03-23T02:14:35;101019.66;;;8.20;62.95
9335;BME280;4706;41.844;26.082;2024-03-23T02:17:00;101022.94;;;8.17;63.71
9335;BME280;4706;41.844;26.082;2024-03-23T02:19:25;101022.66;;;8.18;63.38
9335;BME280;4706;41.844;26.082;2024-03-23T02:21:51;101011.13;;;8.11;63.56
9335;BME280;4706;41.844;26.082;2024-03-23T02:24:16;101027.59;;;8.21;63.14
9335;BME280;4706;41.844;26.082;2024-03-23T02:26:42;101023.19;;;8.20;63.18
9335;BME280;4706;41.844;26.082;2024-03-23T02:29:07;101020.19;;;8.22;63.16
9335;BME280;4706;41.844;26.082;2024-03-23T02:31:35;101021.00;;;8.22;62.80
9335;BME280;4706;41.844;26.082;2024-03-23T02:34:01;101025.38;;;8.18;63.01
9335;BME280;4706;41.844;26.082;2024-03-23T02:36:26;101018.00;;;8.09;62.63
9335;BME280;4706;41.844;26.082;2024-03-23T02:38:52;101034.97;;;8.21;62.69
9335;BME280;4706;41.844;26.082;2024-03-23T02:41:17;101026.75;;;8.26;62.46
9335;BME280;4706;41.844;26.082;2024-03-23T02:43:51;101031.94;;;8.07;62.95
9335;BME280;4706;41.844;26.082;2024-03-23T02:46:17;101030.59;;;8.10;63.06
9335;BME280;4706;41.844;26.082;2024-03-23T02:48:42;101024.28;;;8.14;62.82
9335;BME280;4706;41.844;26.082;2024-03-23T02:51:08;101035.81;;;8.16;61.32
9335;BME280;4706;41.844;26.082;2024-03-23T02:53:34;101032.78;;;8.13;60.10
9335;BME280;4706;41.844;26.082;2024-03-23T02:55:59;101034.97;;;7.95;60.28
9335;BME280;4706;41.844;26.082;2024-03-23T02:58:25;101030.28;;;7.86;60.50
9335;BME280;4706;41.844;26.082;2024-03-23T03:00:50;101025.91;;;7.95;60.50
9335;BME280;4706;41.844;26.082;2024-03-23T03:03:16;101030.28;;;7.75;61.34
9335;BME280;4706;41.844;26.082;2024-03-23T03:05:41;101031.34;;;7.69;61.55
9335;BME280;4706;41.844;26.082;2024-03-23T03:08:06;101022.56;;;7.57;62.11
9335;BME280;4706;41.844;26.082;2024-03-23T03:10:32;101027.72;;;7.48;62.13
9335;BME280;4706;41.844;26.082;2024-03-23T03:13:00;101028.56;;;7.49;63.32
9335;BME280;4706;41.844;26.082;2024-03-23T03:15:26;101025.56;;;7.55;64.25
9335;BME280;4706;41.844;26.082;2024-03-23T03:17:51;101038.16;;;7.67;63.43
9335;BME280;4706;41.844;26.082;2024-03-23T03:20:17;101036.28;;;7.72;64.69
9335;BME280;4706;41.844;26.082;2024-03-23T03:22:43;101027.25;;;7.77;64.70
9335;BME280;4706;41.844;26.082;2024-03-23T03:25:09;101025.06;;;7.69;65.06
9335;BME280;4706;41.844;26.082;2024-03-23T03:27:34;101033.56;;;7.83;64.10
9335;BME280;4706;41.844;26.082;2024-03-23T03:30:00;101026.44;;;7.82;64.33
9335;BME280;4706;41.844;26.082;2024-03-23T03:32:32;101027.81;;;7.79;63.95
9335;BME280;4706;41.844;26.082;2024-03-23T03:34:57;101029.16;;;7.82;64.21
9335;BME280;4706;41.844;26.082;2024-03-23T03:37:24;101026.06;;;7.47;64.64
9335;BME280;4706;41.844;26.082;2024-03-23T03:39:49;101030.16;;;7.35;64.81
9335;BME280;4706;41.844;26.082;2024-03-23T03:42:15;101031.25;;;7.39;65.05
9335;BME280;4706;41.844;26.082;2024-03-23T03:44:40;101027.72;;;7.48;64.40
9335;BME280;4706;41.844;26.082;2024-03-23T03:47:06;101022.81;;;7.45;64.71
9335;BME280;4706;41.844;26.082;2024-03-23T03:49:32;101026.66;;;7.54;64.31
9335;BME280;4706;41.844;26.082;2024-03-23T03:51:57;101030.00;;;7.72;63.89
9335;BME280;4706;41.844;26.082;2024-03-23T03:54:23;101035.72;;;7.60;63.76
9335;BME280;4706;41.844;26.082;2024-03-23T03:56:48;101040.34;;;7.60;64.08
9335;BME280;4706;41.844;26.082;2024-03-23T03:59:15;101043.06;;;7.49;64.23
9335;BME280;4706;41.844;26.082;2024-03-23T04:01:40;101045.28;;;7.58;63.98
9335;BME280;4706;41.844;26.082;2024-03-23T04:04:06;101039.22;;;7.45;64.60
9335;BME280;4706;41.844;26.082;2024-03-23T04:06:32;101043.59;;;7.41;64.94
9335;BME280;4706;41.844;26.082;2024-03-23T04:08:58;101046.91;;;7.53;64.63
9335;BME280;4706;41.844;26.082;2024-03-23T04:11:24;101048.84;;;7.58;64.15
9335;BME280;4706;41.844;26.082;2024-03-23T04:13:49;101048.53;;;7.49;63.79
9335;BME280;4706;41.844;26.082;2024-03-23T04:16:29;101052.91;;;7.45;63.65
9335;BME280;4706;41.844;26.082;2024-03-23T04:18:54;101046.56;;;7.40;64.18
9335;BME280;4706;41.844;26.082;2024-03-23T04:21:21;101049.31;;;7.40;64.49
9335;BME280;4706;41.844;26.082;2024-03-23T04:23:48;101048.44;;;7.24;64.21
9335;BME280;4706;41.844;26.082;2024-03-23T04:26:13;101051.22;;;7.34;64.56
9335;BME280;4706;41.844;26.082;2024-03-23T04:28:39;101048.50;;;7.39;64.30
9335;BME280;4706;41.844;26.082;2024-03-23T04:31:05;101051.00;;;7.46;63.86
9335;BME280;4706;41.844;26.082;2024-03-23T04:33:30;101058.63;;;7.44;64.17
9335;BME280;4706;41.844;26.082;2024-03-23T04:35:56;101055.66;;;7.45;64.31
9335;BME280;4706;41.844;26.082;2024-03-23T04:38:22;101058.09;;;7.47;64.31
9335;BME280;4706;41.844;26.082;2024-03-23T04:40:55;101062.47;;;7.43;64.41
9335;BME280;4706;41.844;26.082;2024-03-23T04:43:21;101063.88;;;7.50;64.08
9335;BME280;4706;41.844;26.082;2024-03-23T04:45:46;101064.94;;;7.44;64.48
9335;BME280;4706;41.844;26.082;2024-03-23T04:48:12;101065.78;;;7.50;65.02
9335;BME280;4706;41.844;26.082;2024-03-23T04:50:38;101071.03;;;7.62;64.78
9335;BME280;4706;41.844;26.082;2024-03-23T04:53:03;101069.97;;;7.73;64.35
9335;BME280;4706;41.844;26.082;2024-03-23T04:55:29;101065.88;;;7.81;63.61
9335;BME280;4706;41.844;26.082;2024-03-23T04:57:56;101059.84;;;7.78;63.66
9335;BME280;4706;41.844;26.082;2024-03-23T05:00:21;101066.41;;;7.77;64.29
9335;BME280;4706;41.844;26.082;2024-03-23T05:02:48;101051.66;;;7.78;63.81
9335;BME280;4706;41.844;26.082;2024-03-23T05:05:14;101065.09;;;7.90;63.87
9335;BME280;4706;41.844;26.082;2024-03-23T05:07:39;101067.81;;;8.00;63.30
9335;BME280;4706;41.844;26.082;2024-03-23T05:10:07;101068.41;;;8.13;63.06
9335;BME280;4706;41.844;26.082;2024-03-23T05:12:36;101071.41;;;8.26;62.90
9335;BME280;4706;41.844;26.082;2024-03-23T05:15:01;101074.47;;;8.45;62.59
9335;BME280;4706;41.844;26.082;2024-03-23T05:17:26;101076.91;;;8.32;62.88
9335;BME280;4706;41.844;26.082;2024-03-23T05:19:52;101079.09;;;8.35;62.98
9335;BME280;4706;41.844;26.082;2024-03-23T05:22:17;101075.03;;;8.47;62.02
9335;BME280;4706;41.844;26.082;2024-03-23T05:24:45;101076.09;;;8.36;62.53
9335;BME280;4706;41.844;26.082;2024-03-23T05:27:10;101063.81;;;8.39;63.22
9335;BME280;4706;41.844;26.082;2024-03-23T05:29:36;101079.69;;;8.62;62.64
9335;BME280;4706;41.844;26.082;2024-03-23T05:32:01;101076.13;;;8.57;62.45
9335;BME280;4706;41.844;26.082;2024-03-23T05:34:26;101064.31;;;8.56;63.32
9335;BME280;4706;41.844;26.082;2024-03-23T05:36:53;101075.00;;;8.78;62.94
9335;BME280;4706;41.844;26.082;2024-03-23T05:39:19;101080.22;;;8.85;62.56
9335;BME280;4706;41.844;26.082;2024-03-23T05:41:47;101080.72;;;8.97;61.99
9335;BME280;4706;41.844;26.082;2024-03-23T05:44:13;101066.44;;;9.05;61.95
9335;BME280;4706;41.844;26.082;2024-03-23T05:46:39;101066.66;;;9.24;61.37
9335;BME280;4706;41.844;26.082;2024-03-23T05:49:04;101072.88;;;9.50;60.27
9335;BME280;4706;41.844;26.082;2024-03-23T05:51:30;101078.84;;;9.62;60.11
9335;BME280;4706;41.844;26.082;2024-03-23T05:53:56;101074.13;;;9.73;60.30
9335;BME280;4706;41.844;26.082;2024-03-23T05:56:21;101071.81;;;9.95;58.81
9335;BME280;4706;41.844;26.082;2024-03-23T05:58:47;101077.25;;;10.06;58.83
9335;BME280;4706;41.844;26.082;2024-03-23T06:01:13;101073.59;;;10.15;57.49
9335;BME280;4706;41.844;26.082;2024-03-23T06:03:39;101072.00;;;10.09;57.42
9335;BME280;4706;41.844;26.082;2024-03-23T06:06:04;101076.44;;;10.00;58.20
9335;BME280;4706;41.844;26.082;2024-03-23T06:08:35;101078.94;;;10.02;59.27
9335;BME280;4706;41.844;26.082;2024-03-23T06:11:01;101077.75;;;10.13;58.52
9335;BME280;4706;41.844;26.082;2024-03-23T06:13:26;101070.25;;;10.29;57.81
9335;BME280;4706;41.844;26.082;2024-03-23T06:15:55;101082.81;;;10.40;57.97
9335;BME280;4706;41.844;26.082;2024-03-23T06:18:21;101079.03;;;10.65;57.41
9335;BME280;4706;41.844;26.082;2024-03-23T06:20:46;101073.41;;;10.75;57.37
9335;BME280;4706;41.844;26.082;2024-03-23T06:23:12;101074.63;;;10.93;56.87
9335;BME280;4706;41.844;26.082;2024-03-23T06:25:38;101076.94;;;11.10;56.72
9335;BME280;4706;41.844;26.082;2024-03-23T06:28:03;101072.19;;;11.15;56.87
9335;BME280;4706;41.844;26.082;2024-03-23T06:30:30;101071.97;;;11.36;56.70
9335;BME280;4706;41.844;26.082;2024-03-23T06:32:57;101071.63;;;11.61;56.08
9335;BME280;4706;41.844;26.082;2024-03-23T06:35:22;101072.78;;;11.79;56.08
9335;BME280;4706;41.844;26.082;2024-03-23T06:37:48;101062.47;;;11.90;55.04
9335;BME280;4706;41.844;26.082;2024-03-23T06:40:14;101065.88;;;12.20;54.73
9335;BME280;4706;41.844;26.082;2024-03-23T06:42:39;101068.31;;;12.40;53.34
9335;BME280;4706;41.844;26.082;2024-03-23T06:45:05;101069.09;;;12.59;53.53
9335;BME280;4706;41.844;26.082;2024-03-23T06:47:31;101071.19;;;12.81;52.80
9335;BME280;4706;41.844;26.082;2024-03-23T06:49:57;101069.34;;;12.77;52.46
9335;BME280;4706;41.844;26.082;2024-03-23T06:52:23;101075.13;;;13.08;52.49
9335;BME280;4706;41.844;26.082;2024-03-23T06:54:48;101068.06;;;13.16;51.99
9335;BME280;4706;41.844;26.082;2024-03-23T06:57:14;101072.59;;;13.25;51.89
9335;BME280;4706;41.844;26.082;2024-03-23T06:59:39;101069.53;;;13.41;51.19
9335;BME280;4706;41.844;26.082;2024-03-23T07:02:07;101068.00;;;13.62;50.45
9335;BME280;4706;41.844;26.082;2024-03-23T07:04:36;101065.59;;;13.83;50.20
9335;BME280;4706;41.844;26.082;2024-03-23T07:07:02;101067.78;;;14.08;49.73
9335;BME280;4706;41.844;26.082;2024-03-23T07:09:30;101057.59;;;14.18;48.88
9335;BME280;4706;41.844;26.082;2024-03-23T07:11:56;101064.88;;;14.50;48.61
9335;BME280;4706;41.844;26.082;2024-03-23T07:14:22;101053.00;;;14.49;48.17
9335;BME280;4706;41.844;26.082;2024-03-23T07:16:48;101052.22;;;14.57;47.97
9335;BME280;4706;41.844;26.082;2024-03-23T07:19:17;101052.44;;;14.70;48.02
9335;BME280;4706;41.844;26.082;2024-03-23T07:21:44;101048.69;;;14.97;47.40
9335;BME280;4706;41.844;26.082;2024-03-23T07:24:10;101047.13;;;15.04;47.34
9335;BME280;4706;41.844;26.082;2024-03-23T07:26:36;101042.59;;;15.17;46.87
9335;BME280;4706;41.844;26.082;2024-03-23T07:29:01;101041.44;;;15.18;46.90
9335;BME280;4706;41.844;26.082;2024-03-23T07:31:27;101040.97;;;15.25;46.56
9335;BME280;4706;41.844;26.082;2024-03-23T07:33:52;101037.94;;;15.44;46.15
9335;BME280;4706;41.844;26.082;2024-03-23T07:36:18;101024.59;;;15.63;45.73
9335;BME280;4706;41.844;26.082;2024-03-23T07:38:43;101028.28;;;15.98;44.71
9335;BME280;4706;41.844;26.082;2024-03-23T07:41:16;101024.50;;;16.20;44.63
9335;BME280;4706;41.844;26.082;2024-03-23T07:43:46;101013.69;;;16.45;44.21
9335;BME280;4706;41.844;26.082;2024-03-23T07:46:12;101017.63;;;16.44;43.09
9335;BME280;4706;41.844;26.082;2024-03-23T07:48:38;101012.84;;;16.53;42.89
9335;BME280;4706;41.844;26.082;2024-03-23T07:51:06;101012.16;;;16.65;42.93
9335;BME280;4706;41.844;26.082;2024-03-23T07:53:33;101016.56;;;16.83;42.31
9335;BME280;4706;41.844;26.082;2024-03-23T07:56:02;101021.06;;;17.05;42.23
9335;BME280;4706;41.844;26.082;2024-03-23T07:58:29;101007.63;;;17.07;42.51
9335;BME280;4706;41.844;26.082;2024-03-23T08:00:56;101010.59;;;17.02;42.53
9335;BME280;4706;41.844;26.082;2024-03-23T08:03:22;101006.84;;;16.98;42.30
9335;BME280;4706;41.844;26.082;2024-03-23T08:05:48;101008.28;;;17.42;41.96
9335;BME280;4706;41.844;26.082;2024-03-23T08:08:14;101004.16;;;17.69;41.04
9335;BME280;4706;41.844;26.082;2024-03-23T08:10:52;101001.94;;;18.05;39.90
9335;BME280;4706;41.844;26.082;2024-03-23T08:13:18;101001.81;;;18.34;39.86
9335;BME280;4706;41.844;26.082;2024-03-23T08:15:44;100993.69;;;18.62;40.24
9335;BME280;4706;41.844;26.082;2024-03-23T08:18:12;100992.13;;;18.98;38.03
9335;BME280;4706;41.844;26.082;2024-03-23T08:20:38;100989.03;;;18.54;38.65
9335;BME280;4706;41.844;26.082;2024-03-23T08:23:05;100990.69;;;18.34;38.85
9335;BME280;4706;41.844;26.082;2024-03-23T08:25:31;100984.97;;;18.31;39.12
9335;BME280;4706;41.844;26.082;2024-03-23T08:27:57;100982.16;;;18.18;40.19
9335;BME280;4706;41.844;26.082;2024-03-23T08:30:23;100982.03;;;18.15;40.25
9335;BME280;4706;41.844;26.082;2024-03-23T08:32:48;100982.34;;;18.47;40.22
9335;BME280;4706;41.844;26.082;2024-03-23T08:35:14;100979.66;;;18.71;39.11
9335;BME280;4706;41.844;26.082;2024-03-23T08:37:39;100983.44;;;19.00;38.67
9335;BME280;4706;41.844;26.082;2024-03-23T08:40:06;100970.03;;;19.17;38.54
9335;BME280;4706;41.844;26.082;2024-03-23T08:42:31;100972.72;;;19.26;37.65
9335;BME280;4706;41.844;26.082;2024-03-23T08:44:57;100978.75;;;19.28;37.16
9335;BME280;4706;41.844;26.082;2024-03-23T08:47:23;100963.91;;;19.12;37.81
9335;BME280;4706;41.844;26.082;2024-03-23T08:49:48;100970.16;;;19.21;38.09
9335;BME280;4706;41.844;26.082;2024-03-23T08:52:14;100966.06;;;19.43;37.38
9335;BME280;4706;41.844;26.082;2024-03-23T08:54:40;100962.56;;;19.46;36.88
9335;BME280;4706;41.844;26.082;2024-03-23T08:57:05;100955.16;;;19.13;38.58
9335;BME280;4706;41.844;26.082;2024-03-23T08:59:32;100918.84;;;18.85;39.19
9335;BME280;4706;41.844;26.082;2024-03-23T09:01:58;100954.22;;;19.46;38.17
9335;BME280;4706;41.844;26.082;2024-03-23T09:04:23;100942.19;;;19.70;37.17
9335;BME280;4706;41.844;26.082;2024-03-23T09:06:49;100948.09;;;19.81;37.31
9335;BME280;4706;41.844;26.082;2024-03-23T09:09:15;100942.44;;;19.93;36.40
9335;BME280;4706;41.844;26.082;2024-03-23T09:11:40;100945.91;;;19.74;36.16
9335;BME280;4706;41.844;26.082;2024-03-23T09:14:06;100934.63;;;19.58;36.14
9335;BME280;4706;41.844;26.082;2024-03-23T09:16:31;100929.94;;;19.87;36.28
9335;BME280;4706;41.844;26.082;2024-03-23T09:18:57;100916.16;;;20.38;35.30
9335;BME280;4706;41.844;26.082;2024-03-23T09:21:22;100914.50;;;20.65;35.16
9335;BME280;4706;41.844;26.082;2024-03-23T09:23:48;100918.88;;;20.98;33.97
9335;BME280;4706;41.844;26.082;2024-03-23T09:26:14;100909.91;;;21.24;33.10
9335;BME280;4706;41.844;26.082;2024-03-23T09:28:40;100902.00;;;21.10;32.83
9335;BME280;4706;41.844;26.082;2024-03-23T09:31:07;100901.88;;;20.55;32.81
9335;BME280;4706;41.844;26.082;2024-03-23T09:33:34;100888.44;;;20.77;33.79
9335;BME280;4706;41.844;26.082;2024-03-23T09:36:03;100889.13;;;21.25;32.62
9335;BME280;4706;41.844;26.082;2024-03-23T09:38:29;100886.63;;;21.74;32.50
9335;BME280;4706;41.844;26.082;2024-03-23T09:40:54;100867.81;;;21.94;30.58
9335;BME280;4706;41.844;26.082;2024-03-23T09:43:20;100872.13;;;21.49;30.17
9335;BME280;4706;41.844;26.082;2024-03-23T09:45:46;100874.38;;;21.44;29.28
9335;BME280;4706;41.844;26.082;2024-03-23T09:48:12;100867.97;;;21.43;29.40
9335;BME280;4706;41.844;26.082;2024-03-23T09:50:42;100869.16;;;21.62;29.06
9335;BME280;4706;41.844;26.082;2024-03-23T09:53:09;100868.50;;;21.49;29.76
9335;BME280;4706;41.844;26.082;2024-03-23T09:55:35;100862.91;;;21.14;30.00
9335;BME280;4706;41.844;26.082;2024-03-23T09:58:04;100857.66;;;21.47;29.70
9335;BME280;4706;41.844;26.082;2024-03-23T10:00:31;100845.53;;;22.01;30.17
9335;BME280;4706;41.844;26.082;2024-03-23T10:02:58;100849.75;;;22.34;28.72
9335;BME280;4706;41.844;26.082;2024-03-23T10:05:28;100843.28;;;22.57;28.43
9335;BME280;4706;41.844;26.082;2024-03-23T10:07:54;100848.28;;;22.67;28.75
9335;BME280;4706;41.844;26.082;2024-03-23T10:10:20;100828.00;;;22.77;28.10
9335;BME280;4706;41.844;26.082;2024-03-23T10:12:48;100833.59;;;23.00;27.89
9335;BME280;4706;41.844;26.082;2024-03-23T10:15:24;100822.75;;;23.29;27.26
9335;BME280;4706;41.844;26.082;2024-03-23T10:17:51;100815.72;;;23.45;27.04
9335;BME280;4706;41.844;26.082;2024-03-23T10:20:20;100814.16;;;23.48;27.04
9335;BME280;4706;41.844;26.082;2024-03-23T10:22:52;100810.75;;;23.01;27.67
9335;BME280;4706;41.844;26.082;2024-03-23T10:25:18;100807.41;;;22.66;27.91
9335;BME280;4706;41.844;26.082;2024-03-23T10:27:58;100801.13;;;22.23;28.29
9335;BME280;4706;41.844;26.082;2024-03-23T10:30:25;100797.34;;;22.61;28.31
9335;BME280;4706;41.844;26.082;2024-03-23T10:33:10;100774.88;;;22.88;28.81
9335;BME280;4706;41.844;26.082;2024-03-23T10:35:37;100775.47;;;22.74;27.09
9335;BME280;4706;41.844;26.082;2024-03-23T10:38:05;100780.41;;;22.54;27.76
9335;BME280;4706;41.844;26.082;2024-03-23T10:40:34;100779.41;;;22.16;28.55
9335;BME280;4706;41.844;26.082;2024-03-23T10:43:00;100769.25;;;22.08;28.41
9335;BME280;4706;41.844;26.082;2024-03-23T10:45:26;100775.84;;;22.19;27.95
9335;BME280;4706;41.844;26.082;2024-03-23T10:47:51;100762.31;;;22.25;28.43
9335;BME280;4706;41.844;26.082;2024-03-23T10:50:17;100757.47;;;22.48;28.00
9335;BME280;4706;41.844;26.082;2024-03-23T10:52:47;100757.88;;;23.03;26.98
9335;BME280;4706;41.844;26.082;2024-03-23T10:55:15;100750.44;;;23.52;26.26
9335;BME280;4706;41.844;26.082;2024-03-23T10:57:51;100747.34;;;23.64;25.32
9335;BME280;4706;41.844;26.082;2024-03-23T11:00:18;100735.94;;;23.46;25.32
9335;BME280;4706;41.844;26.082;2024-03-23T11:02:44;100739.91;;;23.08;25.96
9335;BME280;4706;41.844;26.082;2024-03-23T11:05:29;100743.69;;;22.36;27.42
9335;BME280;4706;41.844;26.082;2024-03-23T11:07:55;100736.03;;;22.10;28.18
9335;BME280;4706;41.844;26.082;2024-03-23T11:10:28;100730.75;;;22.28;27.94
9335;BME280;4706;41.844;26.082;2024-03-23T11:12:55;100718.34;;;22.86;27.47
9335;BME280;4706;41.844;26.082;2024-03-23T11:15:20;100717.28;;;23.27;27.12
9335;BME280;4706;41.844;26.082;2024-03-23T11:18:06;100718.25;;;23.42;26.98
9335;BME280;4706;41.844;26.082;2024-03-23T11:20:37;100710.59;;;23.02;26.89
9335;BME280;4706;41.844;26.082;2024-03-23T11:23:04;100705.97;;;23.20;27.30
9335;BME280;4706;41.844;26.082;2024-03-23T11:25:30;100699.50;;;22.86;27.32
9335;BME280;4706;41.844;26.082;2024-03-23T11:27:57;100705.19;;;22.33;27.94
9335;BME280;4706;41.844;26.082;2024-03-23T11:32:53;100690.22;;;22.22;28.46
9335;BME280;4706;41.844;26.082;2024-03-23T11:35:35;100695.75;;;22.45;28.38
9335;BME280;4706;41.844;26.082;2024-03-23T11:40:37;100681.63;;;22.11;28.95
9335;BME280;4706;41.844;26.082;2024-03-23T11:43:08;100676.19;;;22.48;29.02
9335;BME280;4706;41.844;26.082;2024-03-23T11:45:44;100665.72;;;22.72;27.93
9335;BME280;4706;41.844;26.082;2024-03-23T11:48:15;100674.63;;;22.51;28.92
9335;BME280;4706;41.844;26.082;2024-03-23T11:50:45;100668.63;;;22.22;29.31
9335;BME280;4706;41.844;26.082;2024-03-23T11:55:50;100654.81;;;22.67;29.12
9335;BME280;4706;41.844;26.082;2024-03-23T11:58:17;100660.56;;;22.47;29.05
9335;BME280;4706;41.844;26.082;2024-03-23T12:00:58;100653.97;;;22.63;28.62
9335;BME280;4706;41.844;26.082;2024-03-23T12:03:24;100607.28;;;22.77;27.96
9335;BME280;4706;41.844;26.082;2024-03-23T12:06:02;100627.25;;;22.72;28.00
9335;BME280;4706;41.844;26.082;2024-03-23T12:08:34;100646.75;;;22.62;27.88
9335;BME280;4706;41.844;26.082;2024-03-23T12:11:14;100643.28;;;22.15;28.37
9335;BME280;4706;41.844;26.082;2024-03-23T12:13:41;100640.94;;;22.17;28.77
9335;BME280;4706;41.844;26.082;2024-03-23T12:16:16;100630.16;;;22.19;28.49
9335;BME280;4706;41.844;26.082;2024-03-23T12:18:44;100623.19;;;22.10;28.38
9335;BME280;4706;41.844;26.082;2024-03-23T12:21:10;100627.53;;;22.07;27.70
9335;BME280;4706;41.844;26.082;2024-03-23T12:23:35;100625.41;;;21.97;28.32
9335;BME280;4706;41.844;26.082;2024-03-23T12:26:01;100614.66;;;21.76;27.78
9335;BME280;4706;41.844;26.082;2024-03-23T12:28:27;100610.84;;;21.88;28.03
9335;BME280;4706;41.844;26.082;2024-03-23T12:30:53;100602.50;;;21.65;28.10
9335;BME280;4706;41.844;26.082;2024-03-23T12:33:22;100600.91;;;21.90;28.49
9335;BME280;4706;41.844;26.082;2024-03-23T12:35:49;100607.97;;;21.57;27.21
9335;BME280;4706;41.844;26.082;2024-03-23T12:38:15;100603.84;;;21.48;27.41
9335;BME280;4706;41.844;26.082;2024-03-23T12:40:41;100589.78;;;21.25;26.69
9335;BME280;4706;41.844;26.082;2024-03-23T12:43:07;100592.59;;;21.25;25.76
9335;BME280;4706;41.844;26.082;2024-03-23T12:45:33;100589.50;;;21.07;27.21
9335;BME280;4706;41.844;26.082;2024-03-23T12:47:58;100580.41;;;20.71;27.08
9335;BME280;4706;41.844;26.082;2024-03-23T12:50:24;100574.19;;;21.01;26.72
9335;BME280;4706;41.844;26.082;2024-03-23T12:52:49;100582.88;;;21.38;26.57
9335;BME280;4706;41.844;26.082;2024-03-23T12:55:15;100568.44;;;21.36;26.44
9335;BME280;4706;41.844;26.082;2024-03-23T12:57:40;100565.94;;;21.31;26.51
9335;BME280;4706;41.844;26.082;2024-03-23T13:00:06;100564.19;;;21.00;27.40
9335;BME280;4706;41.844;26.082;2024-03-23T13:02:34;100557.16;;;21.09;26.96
9335;BME280;4706;41.844;26.082;2024-03-23T13:05:00;100562.69;;;21.06;26.66
9335;BME280;4706;41.844;26.082;2024-03-23T13:07:26;100543.03;;;20.79;27.14
9335;BME280;4706;41.844;26.082;2024-03-23T13:09:52;100546.91;;;20.94;29.00
9335;BME280;4706;41.844;26.082;2024-03-23T13:12:19;100548.75;;;20.86;29.14
9335;BME280;4706;41.844;26.082;2024-03-23T13:14:45;100539.16;;;20.65;29.07
9335;BME280;4706;41.844;26.082;2024-03-23T13:17:11;100529.41;;;20.55;29.85
9335;BME280;4706;41.844;26.082;2024-03-23T13:19:36;100543.72;;;20.53;29.94
9335;BME280;4706;41.844;26.082;2024-03-23T13:22:03;100531.69;;;20.49;29.79
9335;BME280;4706;41.844;26.082;2024-03-23T13:24:29;100532.78;;;20.64;29.60
9335;BME280;4706;41.844;26.082;2024-03-23T13:26:55;100531.47;;;20.58;29.74
9335;BME280;4706;41.844;26.082;2024-03-23T13:29:22;100526.88;;;20.11;30.17
9335;BME280;4706;41.844;26.082;2024-03-23T13:31:48;100523.22;;;20.26;30.02
9335;BME280;4706;41.844;26.082;2024-03-23T13:34:15;100535.72;;;20.13;30.93
9335;BME280;4706;41.844;26.082;2024-03-23T13:36:41;100526.63;;;19.81;30.83
9335;BME280;4706;41.844;26.082;2024-03-23T13:39:07;100512.16;;;19.75;31.29
9335;BME280;4706;41.844;26.082;2024-03-23T13:41:43;100517.31;;;19.57;32.16
9335;BME280;4706;41.844;26.082;2024-03-23T13:44:11;100526.59;;;19.46;31.82
9335;BME280;4706;41.844;26.082;2024-03-23T13:46:37;100530.28;;;19.65;31.70
9335;BME280;4706;41.844;26.082;2024-03-23T13:49:03;100511.63;;;19.70;31.97
9335;BME280;4706;41.844;26.082;2024-03-23T13:51:29;100516.03;;;19.55;32.12
9335;BME280;4706;41.844;26.082;2024-03-23T13:53:55;100504.75;;;19.32;32.75
9335;BME280;4706;41.844;26.082;2024-03-23T13:56:29;100504.94;;;19.23;31.91
9335;BME280;4706;41.844;26.082;2024-03-23T13:58:55;100505.38;;;19.25;32.72
9335;BME280;4706;41.844;26.082;2024-03-23T14:01:22;100502.66;;;19.29;32.46
9335;BME280;4706;41.844;26.082;2024-03-23T14:03:47;100507.72;;;19.23;32.28